createdAt,value
2022-12-13T00:00:32.988Z,-4.91
2022-12-13T00:01:32.918Z,-4.84
2022-12-13T00:02:32.982Z,-4.89
2022-12-13T00:03:33.097Z,-4.81
2022-12-13T00:04:32.974Z,-4.87
2022-12-13T00:05:32.942Z,-4.80
2022-12-13T00:06:32.957Z,-4.84
2022-12-13T00:07:32.900Z,-4.81
2022-12-13T00:08:32.934Z,-4.80
2022-12-13T00:09:32.876Z,-4.87
2022-12-13T00:10:32.895Z,-4.84
2022-12-13T00:11:32.861Z,-4.99
2022-12-13T00:12:32.864Z,-4.93
2022-12-13T00:13:32.864Z,-4.99
2022-12-13T00:14:32.855Z,-4.98
2022-12-13T00:15:32.987Z,-5.03
2022-12-13T00:16:32.963Z,-5.09
2022-12-13T00:17:32.835Z,-5.07
2022-12-13T00:18:32.840Z,-5.09
2022-12-13T00:19:32.834Z,-5.24
2022-12-13T00:20:32.842Z,-5.18
2022-12-13T00:21:32.828Z,-5.22
2022-12-13T00:22:32.804Z,-5.17
2022-12-13T00:23:32.823Z,-5.10
2022-12-13T00:24:32.871Z,-5.11
2022-12-13T00:25:32.811Z,-5.11
2022-12-13T00:26:32.900Z,-5.09
2022-12-13T00:27:32.752Z,-5.07
2022-12-13T00:28:32.788Z,-5.05
2022-12-13T00:29:32.734Z,-5.13
2022-12-13T00:30:32.798Z,-5.09
2022-12-13T00:32:33.777Z,-5.05
2022-12-13T00:33:32.739Z,-5.18
2022-12-13T00:34:32.742Z,-5.18
2022-12-13T00:35:32.716Z,-5.24
2022-12-13T00:36:32.749Z,-5.29
2022-12-13T00:37:32.808Z,-5.32
2022-12-13T00:38:32.714Z,-5.38
2022-12-13T00:39:32.731Z,-5.43
2022-12-13T00:40:32.717Z,-5.33
2022-12-13T00:41:32.694Z,-5.41
2022-12-13T00:42:32.681Z,-5.39
2022-12-13T00:43:32.722Z,-5.43
2022-12-13T00:44:32.695Z,-5.21
2022-12-13T00:45:32.641Z,-5.24
2022-12-13T00:46:32.729Z,-5.21
2022-12-13T00:47:32.661Z,-5.22
2022-12-13T00:48:32.688Z,-5.11
2022-12-13T00:49:32.633Z,-5.29
2022-12-13T00:50:32.627Z,-5.28
2022-12-13T00:51:32.643Z,-5.29
2022-12-13T00:52:32.607Z,-5.22
2022-12-13T00:53:32.651Z,-5.20
2022-12-13T00:54:32.624Z,-5.14
2022-12-13T00:55:32.672Z,-5.29
2022-12-13T00:56:32.620Z,-5.22
2022-12-13T00:57:32.594Z,-5.28
2022-12-13T00:58:32.597Z,-5.22
2022-12-13T00:59:32.613Z,-5.36
2022-12-13T01:00:32.559Z,-5.47
2022-12-13T01:01:32.657Z,-5.43
2022-12-13T01:02:32.577Z,-5.33
2022-12-13T01:03:32.578Z,-5.46
2022-12-13T01:04:32.538Z,-5.57
2022-12-13T01:06:13.111Z,-5.43
2022-12-13T01:06:33.567Z,-5.41
2022-12-13T01:07:33.529Z,-5.41
2022-12-13T01:08:32.513Z,-5.42
2022-12-13T01:09:32.510Z,-5.24
2022-12-13T01:10:32.539Z,-5.28
2022-12-13T01:11:32.558Z,-5.29
2022-12-13T01:12:32.469Z,-5.21
2022-12-13T01:13:32.501Z,-5.24
2022-12-13T01:14:32.473Z,-5.20
2022-12-13T01:15:32.482Z,-5.18
2022-12-13T01:16:32.584Z,-5.13
2022-12-13T01:17:32.425Z,-5.11
2022-12-13T01:18:32.449Z,-5.11
2022-12-13T01:19:32.467Z,-5.14
2022-12-13T01:20:32.483Z,-5.05
2022-12-13T01:22:04.425Z,-5.20
2022-12-13T01:22:32.421Z,-5.09
2022-12-13T01:23:32.418Z,-5.07
2022-12-13T01:24:32.502Z,-5.11
2022-12-13T01:25:32.401Z,-5.20
2022-12-13T01:26:32.411Z,-5.20
2022-12-13T01:27:32.488Z,-5.29
2022-12-13T01:28:32.411Z,-5.24
2022-12-13T01:29:32.351Z,-5.29
2022-12-13T01:30:32.422Z,-5.20
2022-12-13T01:31:32.364Z,-5.22
2022-12-13T01:32:32.505Z,-5.22
2022-12-13T01:33:32.370Z,-5.11
2022-12-13T01:34:32.376Z,-5.07
2022-12-13T01:35:32.379Z,-5.14
2022-12-13T01:36:32.434Z,-5.38
2022-12-13T01:37:37.474Z,-5.39
2022-12-13T01:38:32.333Z,-5.39
2022-12-13T01:39:38.154Z,-5.43
2022-12-13T01:40:32.325Z,-5.46
2022-12-13T01:41:33.339Z,-5.51
2022-12-13T01:42:32.330Z,-5.36
2022-12-13T01:43:32.368Z,-5.35
2022-12-13T01:44:32.288Z,-5.38
2022-12-13T01:45:32.290Z,-5.36
2022-12-13T01:46:32.312Z,-5.33
2022-12-13T01:47:32.318Z,-5.29
2022-12-13T01:48:32.339Z,-5.22
2022-12-13T01:49:32.245Z,-5.25
2022-12-13T01:50:32.245Z,-5.22
2022-12-13T01:51:32.251Z,-5.25
2022-12-13T01:52:32.267Z,-5.29
2022-12-13T01:53:32.255Z,-5.33
2022-12-13T01:54:33.286Z,-5.38
2022-12-13T01:55:32.250Z,-5.31
2022-12-13T01:56:32.225Z,-5.39
2022-12-13T01:57:32.197Z,-5.42
2022-12-13T01:58:32.239Z,-5.46
2022-12-13T01:59:32.256Z,-5.47
2022-12-13T02:00:32.216Z,-5.42
2022-12-13T02:01:32.246Z,-5.41
2022-12-13T02:02:32.234Z,-5.41
2022-12-13T02:03:32.175Z,-5.50
2022-12-13T02:04:32.231Z,-5.46
2022-12-13T02:05:32.218Z,-5.46
2022-12-13T02:06:32.145Z,-5.49
2022-12-13T02:07:32.188Z,-5.51
2022-12-13T02:08:35.526Z,-5.54
2022-12-13T02:09:32.162Z,-5.60
2022-12-13T02:10:32.256Z,-5.47
2022-12-13T02:11:32.142Z,-5.42
2022-12-13T02:12:32.139Z,-5.38
2022-12-13T02:13:32.127Z,-5.41
2022-12-13T02:14:32.131Z,-5.43
2022-12-13T02:15:32.252Z,-5.29
2022-12-13T02:16:32.242Z,-5.31
2022-12-13T02:17:32.124Z,-5.38
2022-12-13T02:18:32.110Z,-5.33
2022-12-13T02:19:32.858Z,-5.46
2022-12-13T02:20:32.119Z,-5.49
2022-12-13T02:21:32.115Z,-5.33
2022-12-13T02:22:32.076Z,-5.39
2022-12-13T02:23:32.027Z,-5.43
2022-12-13T02:24:32.053Z,-5.41
2022-12-13T02:25:32.049Z,-5.42
2022-12-13T02:26:32.048Z,-5.46
2022-12-13T02:27:32.183Z,-5.43
2022-12-13T02:28:32.398Z,-5.41
2022-12-13T02:29:33.004Z,-5.49
2022-12-13T02:30:32.021Z,-5.38
2022-12-13T02:31:32.066Z,-5.43
2022-12-13T02:32:33.027Z,-5.39
2022-12-13T02:33:32.011Z,-5.46
2022-12-13T02:34:33.931Z,-5.42
2022-12-13T02:35:32.928Z,-5.50
2022-12-13T02:36:36.317Z,-5.38
2022-12-13T02:37:31.989Z,-5.46
2022-12-13T02:38:31.987Z,-5.36
2022-12-13T02:39:32.960Z,-5.35
2022-12-13T02:40:31.995Z,-5.43
2022-12-13T02:41:31.942Z,-5.49
2022-12-13T02:42:31.987Z,-5.54
2022-12-13T02:43:33.625Z,-5.46
2022-12-13T02:44:31.922Z,-5.54
2022-12-13T02:45:31.904Z,-5.49
2022-12-13T02:46:32.014Z,-5.53
2022-12-13T02:47:31.948Z,-5.54
2022-12-13T02:48:31.940Z,-5.59
2022-12-13T02:49:31.900Z,-5.54
2022-12-13T02:50:31.904Z,-5.54
2022-12-13T02:51:31.943Z,-5.53
2022-12-13T02:52:31.914Z,-5.60
2022-12-13T02:53:33.837Z,-5.57
2022-12-13T02:54:31.867Z,-5.61
2022-12-13T02:55:31.874Z,-5.61
2022-12-13T02:56:31.876Z,-5.67
2022-12-13T02:57:31.834Z,-5.61
2022-12-13T02:58:31.820Z,-5.70
2022-12-13T02:59:31.833Z,-5.71
2022-12-13T03:00:31.814Z,-5.63
2022-12-13T03:01:31.904Z,-5.60
2022-12-13T03:02:32.088Z,-5.59
2022-12-13T03:03:31.894Z,-5.60
2022-12-13T03:04:31.812Z,-5.68
2022-12-13T03:05:31.812Z,-5.68
2022-12-13T03:06:33.730Z,-5.67
2022-12-13T03:07:31.787Z,-5.67
2022-12-13T03:08:31.849Z,-5.65
2022-12-13T03:09:31.759Z,-5.71
2022-12-13T03:10:31.759Z,-5.60
2022-12-13T03:11:31.749Z,-5.67
2022-12-13T03:12:31.817Z,-5.67
2022-12-13T03:13:31.784Z,-5.71
2022-12-13T03:14:31.941Z,-5.90
2022-12-13T03:15:31.760Z,-5.88
2022-12-13T03:16:31.752Z,-5.83
2022-12-13T03:17:31.765Z,-5.88
2022-12-13T03:18:31.724Z,-5.79
2022-12-13T03:19:31.698Z,-5.85
2022-12-13T03:20:31.701Z,-5.85
2022-12-13T03:21:31.695Z,-5.86
2022-12-13T03:22:31.709Z,-5.88
2022-12-13T03:23:31.694Z,-5.92
2022-12-13T03:24:31.665Z,-5.89
2022-12-13T03:25:32.829Z,-5.89
2022-12-13T03:26:31.670Z,-5.99
2022-12-13T03:27:31.656Z,-6.07
2022-12-13T03:28:31.692Z,-6.10
2022-12-13T03:29:31.683Z,-6.04
2022-12-13T03:30:31.664Z,-6.03
2022-12-13T03:31:31.703Z,-6.11
2022-12-13T03:32:31.613Z,-5.99
2022-12-13T03:33:31.619Z,-6.04
2022-12-13T03:34:44.618Z,-5.93
2022-12-13T03:35:33.927Z,-6.06
2022-12-13T03:36:31.588Z,-5.96
2022-12-13T03:37:31.636Z,-5.96
2022-12-13T03:38:31.606Z,-5.90
2022-12-13T03:39:31.580Z,-5.98
2022-12-13T03:40:31.597Z,-5.98
2022-12-13T03:41:31.577Z,-6.13
2022-12-13T03:42:31.618Z,-6.04
2022-12-13T03:43:31.613Z,-6.06
2022-12-13T03:44:31.839Z,-5.99
2022-12-13T03:45:31.563Z,-5.98
2022-12-13T03:46:31.589Z,-5.99
2022-12-13T03:47:31.551Z,-5.98
2022-12-13T03:48:31.533Z,-5.93
2022-12-13T03:49:35.414Z,-6.00
2022-12-13T03:50:31.515Z,-5.96
2022-12-13T03:51:31.536Z,-5.96
2022-12-13T03:52:31.525Z,-5.98
2022-12-13T03:53:33.623Z,-6.03
2022-12-13T03:54:31.508Z,-5.96
2022-12-13T03:55:31.500Z,-6.08
2022-12-13T03:56:31.520Z,-6.03
2022-12-13T03:57:31.473Z,-6.11
2022-12-13T03:58:36.944Z,-6.21
2022-12-13T03:59:32.452Z,-6.07
2022-12-13T04:00:31.475Z,-6.21
2022-12-13T04:01:31.486Z,-6.24
2022-12-13T04:02:31.773Z,-6.21
2022-12-13T04:03:31.474Z,-6.32
2022-12-13T04:04:31.444Z,-6.25
2022-12-13T04:05:31.478Z,-6.31
2022-12-13T04:06:33.174Z,-6.24
2022-12-13T04:07:34.372Z,-6.22
2022-12-13T04:08:31.514Z,-6.21
2022-12-13T04:09:31.407Z,-6.24
2022-12-13T04:10:31.436Z,-6.18
2022-12-13T04:11:31.380Z,-6.24
2022-12-13T04:12:31.390Z,-6.16
2022-12-13T04:13:31.502Z,-6.14
2022-12-13T04:14:31.379Z,-6.16
2022-12-13T04:15:31.408Z,-6.18
2022-12-13T04:16:31.385Z,-6.18
2022-12-13T04:17:31.367Z,-6.17
2022-12-13T04:18:31.471Z,-6.16
2022-12-13T04:19:31.362Z,-6.06
2022-12-13T04:20:31.336Z,-6.14
2022-12-13T04:21:31.359Z,-6.16
2022-12-13T04:22:31.328Z,-6.11
2022-12-13T04:23:31.283Z,-6.14
2022-12-13T04:24:32.374Z,-6.10
2022-12-13T04:25:31.317Z,-6.16
2022-12-13T04:26:31.325Z,-6.17
2022-12-13T04:27:31.316Z,-6.11
2022-12-13T04:28:31.287Z,-6.14
2022-12-13T04:29:34.538Z,-6.21
2022-12-13T04:30:31.297Z,-6.16
2022-12-13T04:31:31.313Z,-6.29
2022-12-13T04:32:31.255Z,-6.32
2022-12-13T04:33:32.257Z,-6.35
2022-12-13T04:34:36.729Z,-6.34
2022-12-13T04:35:33.261Z,-6.34
2022-12-13T04:36:32.827Z,-6.25
2022-12-13T04:37:31.250Z,-6.22
2022-12-13T04:38:31.197Z,-6.25
2022-12-13T04:39:34.301Z,-6.22
2022-12-13T04:40:31.209Z,-6.22
2022-12-13T04:41:34.027Z,-6.18
2022-12-13T04:42:31.219Z,-6.29
2022-12-13T04:43:31.252Z,-6.39
2022-12-13T04:44:35.116Z,-6.37
2022-12-13T04:45:31.226Z,-6.32
2022-12-13T04:46:31.209Z,-6.28
2022-12-13T04:47:31.871Z,-6.39
2022-12-13T04:48:31.804Z,-6.21
2022-12-13T04:49:31.155Z,-6.27
2022-12-13T04:50:31.198Z,-6.22
2022-12-13T04:51:31.290Z,-6.28
2022-12-13T04:52:31.164Z,-6.40
2022-12-13T04:53:31.120Z,-6.40
2022-12-13T04:54:36.488Z,-6.32
2022-12-13T04:55:32.139Z,-6.29
2022-12-13T04:56:31.146Z,-6.37
2022-12-13T04:57:31.128Z,-6.39
2022-12-13T04:58:31.105Z,-6.34
2022-12-13T04:59:31.096Z,-6.34
2022-12-13T05:00:31.111Z,-6.43
2022-12-13T05:01:31.163Z,-6.40
2022-12-13T05:02:31.253Z,-6.35
2022-12-13T05:03:31.060Z,-6.43
2022-12-13T05:04:33.175Z,-6.35
2022-12-13T05:05:31.099Z,-6.28
2022-12-13T05:06:31.222Z,-6.32
2022-12-13T05:07:31.151Z,-6.28
2022-12-13T05:08:31.096Z,-6.39
2022-12-13T05:09:31.024Z,-6.31
2022-12-13T05:10:34.207Z,-6.27
2022-12-13T05:11:35.881Z,-6.27
2022-12-13T05:12:30.991Z,-6.29
2022-12-13T05:13:31.153Z,-6.32
2022-12-13T05:14:31.021Z,-6.31
2022-12-13T05:15:30.989Z,-6.43
2022-12-13T05:16:31.058Z,-6.40
2022-12-13T05:17:30.988Z,-6.40
2022-12-13T05:18:31.013Z,-6.42
2022-12-13T05:19:31.810Z,-6.39
2022-12-13T05:20:31.012Z,-6.45
2022-12-13T05:21:30.956Z,-6.43
2022-12-13T05:22:30.962Z,-6.40
2022-12-13T05:23:30.970Z,-6.47
2022-12-13T05:24:30.979Z,-6.37
2022-12-13T05:25:30.965Z,-6.46
2022-12-13T05:26:30.925Z,-6.49
2022-12-13T05:27:30.939Z,-6.61
2022-12-13T05:28:30.915Z,-6.68
2022-12-13T05:29:30.923Z,-6.80
2022-12-13T05:30:30.934Z,-6.64
2022-12-13T05:31:30.976Z,-6.65
2022-12-13T05:32:30.892Z,-6.62
2022-12-13T05:33:30.888Z,-6.64
2022-12-13T05:34:30.880Z,-6.71
2022-12-13T05:35:30.992Z,-6.65
2022-12-13T05:36:30.864Z,-6.69
2022-12-13T05:37:30.901Z,-6.71
2022-12-13T05:38:30.903Z,-6.61
2022-12-13T05:39:30.859Z,-6.61
2022-12-13T05:40:30.899Z,-6.69
2022-12-13T05:41:30.834Z,-6.68
2022-12-13T05:42:30.855Z,-6.68
2022-12-13T05:43:42.210Z,-6.72
2022-12-13T05:44:31.858Z,-6.61
2022-12-13T05:45:30.824Z,-6.68
2022-12-13T05:46:31.043Z,-6.65
2022-12-13T05:47:30.854Z,-6.67
2022-12-13T05:48:30.840Z,-6.69
2022-12-13T05:49:30.774Z,-6.56
2022-12-13T05:50:30.793Z,-6.72
2022-12-13T05:51:30.796Z,-6.72
2022-12-13T05:52:30.962Z,-6.82
2022-12-13T05:53:31.350Z,-6.82
2022-12-13T05:54:32.381Z,-6.75
2022-12-13T05:55:31.306Z,-6.67
2022-12-13T05:56:30.730Z,-6.79
2022-12-13T05:57:30.789Z,-6.71
2022-12-13T05:58:35.928Z,-6.55
2022-12-13T05:59:31.737Z,-6.61
2022-12-13T06:00:31.167Z,-6.56
2022-12-13T06:01:31.744Z,-6.65
2022-12-13T06:02:30.878Z,-6.69
2022-12-13T06:03:30.906Z,-6.72
2022-12-13T06:04:30.732Z,-6.68
2022-12-13T06:05:30.747Z,-6.86
2022-12-13T06:06:30.731Z,-6.77
2022-12-13T06:07:30.698Z,-6.86
2022-12-13T06:08:30.813Z,-6.75
2022-12-13T06:09:30.698Z,-6.86
2022-12-13T06:10:34.741Z,-7.04
2022-12-13T06:11:32.111Z,-7.01
2022-12-13T06:12:31.936Z,-6.97
2022-12-13T06:13:32.203Z,-6.97
2022-12-13T06:14:30.648Z,-7.03
2022-12-13T06:15:35.011Z,-7.07
2022-12-13T06:16:30.674Z,-7.03
2022-12-13T06:17:30.637Z,-7.11
2022-12-13T06:18:30.671Z,-7.15
2022-12-13T06:19:30.735Z,-7.15
2022-12-13T06:20:30.626Z,-7.04
2022-12-13T06:21:43.500Z,-7.16
2022-12-13T06:22:32.619Z,-7.13
2022-12-13T06:23:30.574Z,-7.13
2022-12-13T06:24:30.624Z,-7.16
2022-12-13T06:25:32.083Z,-7.08
2022-12-13T06:26:30.587Z,-7.03
2022-12-13T06:27:30.567Z,-7.13
2022-12-13T06:28:30.608Z,-7.04
2022-12-13T06:29:30.564Z,-7.07
2022-12-13T06:30:30.660Z,-7.15
2022-12-13T06:31:30.558Z,-6.97
2022-12-13T06:32:30.560Z,-7.06
2022-12-13T06:33:30.564Z,-7.08
2022-12-13T06:34:30.653Z,-7.06
2022-12-13T06:35:33.124Z,-7.00
2022-12-13T06:36:30.517Z,-7.07
2022-12-13T06:37:30.519Z,-7.15
2022-12-13T06:38:31.430Z,-7.13
2022-12-13T06:39:32.508Z,-7.04
2022-12-13T06:40:30.690Z,-7.13
2022-12-13T06:41:32.169Z,-7.16
2022-12-13T06:42:30.595Z,-7.31
2022-12-13T06:43:30.514Z,-7.15
2022-12-13T06:44:30.496Z,-7.13
2022-12-13T06:45:30.463Z,-7.15
2022-12-13T06:46:31.317Z,-7.26
2022-12-13T06:47:31.335Z,-7.13
2022-12-13T06:48:30.447Z,-7.25
2022-12-13T06:49:32.396Z,-7.25
2022-12-13T06:50:30.491Z,-7.28
2022-12-13T06:51:33.229Z,-7.21
2022-12-13T06:52:31.498Z,-7.25
2022-12-13T06:53:30.455Z,-7.21
2022-12-13T06:54:30.432Z,-7.19
2022-12-13T06:55:30.541Z,-7.21
2022-12-13T06:56:30.419Z,-7.32
2022-12-13T06:57:30.562Z,-7.37
2022-12-13T06:58:30.999Z,-7.29
2022-12-13T06:59:30.449Z,-7.29
2022-12-13T07:00:35.668Z,-7.28
2022-12-13T07:01:36.717Z,-7.36
2022-12-13T07:02:30.514Z,-7.36
2022-12-13T07:03:30.425Z,-7.19
2022-12-13T07:04:31.245Z,-7.22
2022-12-13T07:05:30.366Z,-7.22
2022-12-13T07:06:30.436Z,-7.13
2022-12-13T07:07:30.407Z,-7.13
2022-12-13T07:08:30.347Z,-7.18
2022-12-13T07:09:30.349Z,-7.11
2022-12-13T07:10:30.328Z,-7.08
2022-12-13T07:11:30.349Z,-7.04
2022-12-13T07:12:30.333Z,-6.95
2022-12-13T07:13:30.315Z,-7.01
2022-12-13T07:14:30.415Z,-6.93
2022-12-13T07:15:30.533Z,-7.01
2022-12-13T07:16:30.335Z,-6.95
2022-12-13T07:17:32.878Z,-7.03
2022-12-13T07:18:30.307Z,-7.03
2022-12-13T07:19:35.582Z,-7.00
2022-12-13T07:20:31.309Z,-7.11
2022-12-13T07:21:30.298Z,-7.24
2022-12-13T07:22:35.251Z,-7.19
2022-12-13T07:23:31.268Z,-7.19
2022-12-13T07:24:30.253Z,-7.18
2022-12-13T07:25:30.293Z,-7.31
2022-12-13T07:26:30.527Z,-7.36
2022-12-13T07:27:30.249Z,-7.40
2022-12-13T07:28:30.306Z,-7.40
2022-12-13T07:29:30.242Z,-7.45
2022-12-13T07:30:30.376Z,-7.37
2022-12-13T07:31:31.050Z,-7.35
2022-12-13T07:32:30.228Z,-7.43
2022-12-13T07:33:30.212Z,-7.29
2022-12-13T07:34:30.231Z,-7.31
2022-12-13T07:35:30.245Z,-7.26
2022-12-13T07:36:30.206Z,-7.28
2022-12-13T07:37:31.115Z,-7.29
2022-12-13T07:38:30.151Z,-7.18
2022-12-13T07:39:30.197Z,-7.28
2022-12-13T07:40:30.171Z,-7.26
2022-12-13T07:41:30.272Z,-7.15
2022-12-13T07:42:30.242Z,-7.18
2022-12-13T07:43:30.175Z,-7.19
2022-12-13T07:44:30.144Z,-7.21
2022-12-13T07:45:30.129Z,-7.26
2022-12-13T07:46:32.814Z,-7.43
2022-12-13T07:47:30.129Z,-7.37
2022-12-13T07:48:30.114Z,-7.42
2022-12-13T07:49:30.155Z,-7.45
2022-12-13T07:50:37.218Z,-7.40
2022-12-13T07:51:31.112Z,-7.40
2022-12-13T07:52:30.244Z,-7.46
2022-12-13T07:53:33.474Z,-7.37
2022-12-13T07:54:30.130Z,-7.36
2022-12-13T07:55:33.547Z,-7.32
2022-12-13T07:56:30.072Z,-7.25
2022-12-13T07:57:30.100Z,-7.29
2022-12-13T07:58:30.103Z,-7.22
2022-12-13T07:59:30.084Z,-7.29
2022-12-13T08:00:30.025Z,-7.26
2022-12-13T08:01:30.089Z,-7.25
2022-12-13T08:02:30.056Z,-7.22
2022-12-13T08:03:30.357Z,-7.21
2022-12-13T08:04:30.085Z,-7.21
2022-12-13T08:05:38.934Z,-7.11
2022-12-13T08:06:31.084Z,-7.16
2022-12-13T08:07:30.039Z,-7.03
2022-12-13T08:08:31.580Z,-7.21
2022-12-13T08:09:30.026Z,-7.15
2022-12-13T08:10:29.999Z,-7.11
2022-12-13T08:11:29.967Z,-7.01
2022-12-13T08:12:30.020Z,-6.97
2022-12-13T08:13:29.993Z,-6.82
2022-12-13T08:14:29.973Z,-6.71
2022-12-13T08:15:30.001Z,-6.68
2022-12-13T08:16:30.426Z,-6.68
2022-12-13T08:17:29.962Z,-6.61
2022-12-13T08:18:29.965Z,-6.61
2022-12-13T08:19:30.094Z,-6.61
2022-12-13T08:20:29.973Z,-6.56
2022-12-13T08:21:53.497Z,-6.55
2022-12-13T08:22:35.943Z,-6.59
2022-12-13T08:23:29.947Z,-6.56
2022-12-13T08:24:29.956Z,-6.74
2022-12-13T08:25:29.936Z,-6.79
2022-12-13T08:26:29.924Z,-6.77
2022-12-13T08:27:29.909Z,-6.67
2022-12-13T08:28:29.886Z,-6.65
2022-12-13T08:29:34.552Z,-6.56
2022-12-13T08:30:30.882Z,-6.56
2022-12-13T08:31:33.944Z,-6.52
2022-12-13T08:32:29.894Z,-6.39
2022-12-13T08:33:29.917Z,-6.37
2022-12-13T08:34:29.866Z,-6.35
2022-12-13T08:35:33.958Z,-6.45
2022-12-13T08:36:29.834Z,-6.29
2022-12-13T08:37:29.837Z,-6.29
2022-12-13T08:38:29.855Z,-6.22
2022-12-13T08:39:29.818Z,-6.24
2022-12-13T08:40:29.842Z,-6.17
2022-12-13T08:41:33.257Z,-6.29
2022-12-13T08:42:30.809Z,-6.39
2022-12-13T08:43:29.811Z,-6.32
2022-12-13T08:44:29.815Z,-6.29
2022-12-13T08:45:29.796Z,-6.32
2022-12-13T08:46:29.901Z,-6.13
2022-12-13T08:47:29.787Z,-5.88
2022-12-13T08:48:29.783Z,-5.60
2022-12-13T08:49:29.796Z,-5.53
2022-12-13T08:50:29.754Z,-5.46
2022-12-13T08:51:35.559Z,-5.20
2022-12-13T08:52:30.757Z,-4.80
2022-12-13T08:53:32.773Z,-4.82
2022-12-13T08:54:31.977Z,-5.03
2022-12-13T08:55:31.691Z,-4.89
2022-12-13T08:56:29.718Z,-4.80
2022-12-13T08:57:29.724Z,-4.48
2022-12-13T08:58:29.725Z,-4.06
2022-12-13T08:59:29.700Z,-3.81
2022-12-13T09:00:29.816Z,-3.01
2022-12-13T09:01:30.688Z,-2.08
2022-12-13T09:02:29.736Z,-1.47
2022-12-13T09:03:30.722Z,-0.94
2022-12-13T09:04:32.134Z,-0.50
2022-12-13T09:05:33.891Z,-0.22
2022-12-13T09:06:30.652Z,0.09
2022-12-13T09:07:29.620Z,0.02
2022-12-13T09:08:29.697Z,0.41
2022-12-13T09:09:30.655Z,0.72
2022-12-13T09:10:29.634Z,0.90
2022-12-13T09:11:34.583Z,1.21
2022-12-13T09:12:31.184Z,1.49
2022-12-13T09:13:31.803Z,1.35
2022-12-13T09:14:33.779Z,1.52
2022-12-13T09:15:33.652Z,1.63
2022-12-13T09:16:36.092Z,1.78
2022-12-13T09:17:36.815Z,2.01
2022-12-13T09:18:36.119Z,1.95
2022-12-13T09:19:37.077Z,1.99
2022-12-13T09:20:30.188Z,2.11
2022-12-13T09:21:31.939Z,2.47
2022-12-13T09:22:32.757Z,2.78
2022-12-13T09:23:30.232Z,2.91
2022-12-13T09:24:29.541Z,3.23
2022-12-13T09:25:36.742Z,3.17
2022-12-13T09:26:29.537Z,3.29
2022-12-13T09:27:29.679Z,3.52
2022-12-13T09:28:29.523Z,3.60
2022-12-13T09:29:29.524Z,3.72
2022-12-13T09:30:31.584Z,3.76
2022-12-13T09:31:29.548Z,4.10
2022-12-13T09:32:30.039Z,4.00
2022-12-13T09:33:30.835Z,3.78
2022-12-13T09:34:29.593Z,3.98
2022-12-13T09:35:29.461Z,4.39
2022-12-13T09:36:29.437Z,4.82
2022-12-13T09:37:29.424Z,5.12
2022-12-13T09:38:29.487Z,5.44
2022-12-13T09:39:29.438Z,5.11
2022-12-13T09:40:29.485Z,5.12
2022-12-13T09:41:29.438Z,4.75
2022-12-13T09:42:30.748Z,4.85
2022-12-13T09:43:32.466Z,5.21
2022-12-13T09:44:32.317Z,4.98
2022-12-13T09:45:31.864Z,4.53
2022-12-13T09:46:34.477Z,4.16
2022-12-13T09:47:35.027Z,4.56
2022-12-13T09:48:34.959Z,4.53
2022-12-13T09:49:35.317Z,4.53
2022-12-13T09:50:30.398Z,4.39
2022-12-13T09:51:44.768Z,3.70
2022-12-13T09:52:33.534Z,2.73
2022-12-13T09:53:33.460Z,1.26
2022-12-13T09:54:29.381Z,0.11
2022-12-13T09:55:30.233Z,-0.38
2022-12-13T09:56:30.341Z,-0.35
2022-12-13T09:57:32.443Z,0.05
2022-12-13T09:58:29.295Z,0.67
2022-12-13T09:59:29.395Z,1.18
2022-12-13T10:00:29.357Z,1.92
2022-12-13T10:01:29.372Z,2.75
2022-12-13T10:02:29.390Z,3.33
2022-12-13T10:03:29.318Z,3.90
2022-12-13T10:04:29.274Z,4.27
2022-12-13T10:05:34.174Z,4.53
2022-12-13T10:06:30.305Z,4.30
2022-12-13T10:07:29.269Z,4.53
2022-12-13T10:08:29.284Z,5.22
2022-12-13T10:09:29.284Z,5.62
2022-12-13T10:10:29.332Z,5.54
2022-12-13T10:11:31.696Z,5.44
2022-12-13T10:12:29.251Z,5.19
2022-12-13T10:13:29.225Z,5.33
2022-12-13T10:14:29.235Z,5.32
2022-12-13T10:15:29.224Z,5.57
2022-12-13T10:16:36.057Z,5.16
2022-12-13T10:17:29.176Z,5.62
2022-12-13T10:18:30.201Z,5.77
2022-12-13T10:19:30.028Z,6.38
2022-12-13T10:20:29.183Z,6.52
2022-12-13T10:21:29.227Z,6.99
2022-12-13T10:22:29.187Z,7.40
2022-12-13T10:23:47.069Z,7.04
2022-12-13T10:24:36.513Z,7.43
2022-12-13T10:25:30.128Z,7.54
2022-12-13T10:26:29.201Z,7.26
2022-12-13T10:27:29.446Z,7.76
2022-12-13T10:28:29.159Z,7.31
2022-12-13T10:29:29.137Z,7.34
2022-12-13T10:30:29.558Z,6.81
2022-12-13T10:31:30.201Z,6.47
2022-12-13T10:32:29.162Z,6.92
2022-12-13T10:33:29.096Z,6.85
2022-12-13T10:34:29.103Z,7.08
2022-12-13T10:35:29.147Z,7.34
2022-12-13T10:36:29.116Z,7.78
2022-12-13T10:37:29.079Z,7.60
2022-12-13T10:38:31.469Z,7.57
2022-12-13T10:39:29.056Z,7.71
2022-12-13T10:40:32.189Z,7.80
2022-12-13T10:41:29.062Z,7.37
2022-12-13T10:42:33.933Z,6.99
2022-12-13T10:43:30.109Z,6.53
2022-12-13T10:44:29.056Z,6.70
2022-12-13T10:45:29.098Z,6.63
2022-12-13T10:46:29.067Z,6.30
2022-12-13T10:47:29.018Z,6.09
2022-12-13T10:48:28.991Z,6.12
2022-12-13T10:49:29.007Z,6.40
2022-12-13T10:50:28.967Z,6.47
2022-12-13T10:51:29.027Z,6.09
2022-12-13T10:52:31.250Z,6.46
2022-12-13T10:53:28.956Z,6.55
2022-12-13T10:54:28.989Z,6.42
2022-12-13T10:55:28.997Z,6.45
2022-12-13T10:56:28.949Z,6.32
2022-12-13T10:57:28.952Z,5.97
2022-12-13T10:58:28.933Z,5.21
2022-12-13T10:59:28.966Z,4.98
2022-12-13T11:00:28.957Z,4.88
2022-12-13T11:01:29.025Z,4.60
2022-12-13T11:02:29.052Z,4.53
2022-12-13T11:03:28.936Z,4.38
2022-12-13T11:04:28.935Z,4.18
2022-12-13T11:05:28.932Z,4.08
2022-12-13T11:06:28.900Z,4.75
2022-12-13T11:07:28.898Z,5.40
2022-12-13T11:08:29.104Z,5.87
2022-12-13T11:09:28.905Z,6.64
2022-12-13T11:10:28.962Z,7.29
2022-12-13T11:11:28.897Z,7.08
2022-12-13T11:12:29.411Z,7.04
2022-12-13T11:13:28.872Z,7.28
2022-12-13T11:14:31.757Z,7.49
2022-12-13T11:15:28.852Z,7.47
2022-12-13T11:16:28.953Z,6.86
2022-12-13T11:17:28.838Z,5.75
2022-12-13T11:18:28.868Z,5.43
2022-12-13T11:19:28.833Z,5.06
2022-12-13T11:20:28.838Z,4.57
2022-12-13T11:21:28.813Z,4.27
2022-12-13T11:22:28.841Z,4.53
2022-12-13T11:23:28.785Z,5.06
2022-12-13T11:24:28.799Z,5.41
2022-12-13T11:25:28.806Z,5.98
2022-12-13T11:26:28.784Z,6.25
2022-12-13T11:27:28.773Z,6.31
2022-12-13T11:28:28.772Z,6.74
2022-12-13T11:29:28.736Z,6.73
2022-12-13T11:30:28.780Z,7.04
2022-12-13T11:31:28.764Z,6.96
2022-12-13T11:32:28.747Z,6.71
2022-12-13T11:33:28.818Z,6.15
2022-12-13T11:34:28.734Z,6.25
2022-12-13T11:35:28.720Z,6.49
2022-12-13T11:36:28.755Z,6.92
2022-12-13T11:37:28.720Z,7.08
2022-12-13T11:38:28.784Z,7.06
2022-12-13T11:39:28.697Z,6.99
2022-12-13T11:40:28.743Z,6.99
2022-12-13T11:41:31.333Z,6.89
2022-12-13T11:42:28.692Z,7.03
2022-12-13T11:43:28.684Z,6.91
2022-12-13T11:44:28.765Z,6.82
2022-12-13T11:45:28.690Z,7.01
2022-12-13T11:46:28.752Z,7.16
2022-12-13T11:47:28.679Z,7.06
2022-12-13T11:48:28.974Z,7.24
2022-12-13T11:49:28.758Z,7.24
2022-12-13T11:50:33.353Z,7.07
2022-12-13T11:51:29.643Z,6.92
2022-12-13T11:52:28.646Z,6.79
2022-12-13T11:53:29.124Z,6.78
2022-12-13T11:54:28.612Z,6.68
2022-12-13T11:55:28.716Z,6.71
2022-12-13T11:56:28.614Z,6.88
2022-12-13T11:57:28.604Z,6.70
2022-12-13T11:59:29.880Z,6.50
2022-12-13T12:00:34.678Z,6.24
2022-12-13T12:01:28.592Z,6.25
2022-12-13T12:02:28.672Z,6.60
2022-12-13T12:03:28.646Z,6.61
2022-12-13T12:04:28.554Z,6.73
2022-12-13T12:05:28.601Z,6.78
2022-12-13T12:06:28.543Z,7.03
2022-12-13T12:07:33.188Z,7.21
2022-12-13T12:08:32.195Z,7.43
2022-12-13T12:09:28.505Z,7.50
2022-12-13T12:10:28.533Z,7.06
2022-12-13T12:11:28.530Z,6.82
2022-12-13T12:12:28.525Z,6.52
2022-12-13T12:13:28.513Z,6.64
2022-12-13T12:14:28.492Z,6.99
2022-12-13T12:15:28.490Z,6.86
2022-12-13T12:16:28.559Z,6.83
2022-12-13T12:17:32.303Z,6.85
2022-12-13T12:18:29.686Z,6.45
2022-12-13T12:19:28.457Z,5.43
2022-12-13T12:20:28.515Z,5.21
2022-12-13T12:21:42.800Z,5.15
2022-12-13T12:22:29.472Z,5.59
2022-12-13T12:23:28.432Z,5.41
2022-12-13T12:24:28.449Z,5.65
2022-12-13T12:25:28.401Z,5.75
2022-12-13T12:26:28.456Z,5.91
2022-12-13T12:27:28.437Z,6.05
2022-12-13T12:28:28.799Z,6.02
2022-12-13T12:29:28.416Z,5.76
2022-12-13T12:30:28.403Z,5.90
2022-12-13T12:31:28.470Z,5.90
2022-12-13T12:32:28.373Z,5.47
2022-12-13T12:33:28.432Z,4.74
2022-12-13T12:34:28.343Z,4.26
2022-12-13T12:35:28.385Z,4.54
2022-12-13T12:36:28.329Z,4.51
2022-12-13T12:37:28.320Z,4.67
2022-12-13T12:38:28.780Z,4.93
2022-12-13T12:39:28.394Z,5.22
2022-12-13T12:40:35.733Z,5.34
2022-12-13T12:41:29.309Z,5.07
2022-12-13T12:42:28.342Z,4.77
2022-12-13T12:43:29.437Z,4.39
2022-12-13T12:44:30.644Z,4.23
2022-12-13T12:45:55.266Z,3.84
2022-12-13T12:46:30.357Z,3.66
2022-12-13T12:47:49.045Z,3.60
2022-12-13T12:48:51.982Z,3.73
2022-12-13T12:49:30.361Z,3.94
2022-12-13T12:50:28.312Z,4.09
2022-12-13T12:51:28.250Z,4.28
2022-12-13T12:52:28.254Z,4.43
2022-12-13T12:53:28.286Z,4.35
2022-12-13T12:54:32.335Z,4.31
2022-12-13T12:55:29.293Z,4.26
2022-12-13T12:56:28.250Z,4.08
2022-12-13T12:57:28.211Z,3.67
2022-12-13T12:58:28.521Z,3.18
2022-12-13T12:59:28.267Z,2.82
2022-12-13T13:00:28.256Z,2.55
2022-12-13T13:01:28.363Z,2.12
2022-12-13T13:02:28.309Z,1.59